Time;durP1;ratioP1;P1;durP2;ratioP2;P2;SDS_P1;SDS_P2;PMS_P1;PMS_P2;Temp;Humidity;BMP_temperature;BMP_pressure;BME280_temperature;BME280_humidity;BME280_pressure;Samples;Min_cycle;Max_cycle;Signal;HPM_P1;HPM_P2
2021/12/31 05:00:15;;;;;;;4.20;2.30;;;7.80;99.90;;;;;;6177826;22;91479;-74
2021/12/31 05:02:41;;;;;;;6.28;2.85;;;7.70;99.90;;;;;;4997077;28;90978;-74
2021/12/31 05:05:07;;;;;;;6.22;2.53;;;7.50;99.90;;;;;;5000056;28;89157;-74
2021/12/31 05:07:32;;;;;;;4.22;2.50;;;7.50;99.90;;;;;;4999767;28;90209;-74
2021/12/31 05:09:58;;;;;;;4.30;2.50;;;7.40;99.90;;;;;;5000139;28;89887;-74
2021/12/31 05:12:28;;;;;;;4.45;2.80;;;7.30;99.90;;;;;;4999788;28;89393;-74
2021/12/31 05:14:54;;;;;;;6.00;3.28;;;7.20;99.90;;;;;;5000274;28;89581;-73
2021/12/31 05:17:19;;;;;;;5.43;2.90;;;7.20;99.90;;;;;;5000288;28;89803;-73
2021/12/31 05:19:45;;;;;;;5.85;2.28;;;7.00;99.90;;;;;;4988537;28;91700;-73
2021/12/31 05:22:11;;;;;;;4.15;2.40;;;7.00;99.90;;;;;;5021077;28;89229;-75
2021/12/31 05:24:37;;;;;;;8.35;5.22;;;6.90;99.90;;;;;;4995306;28;92658;-74
2021/12/31 05:27:03;;;;;;;5.40;3.40;;;6.90;99.90;;;;;;4999855;28;89982;-74
2021/12/31 05:29:28;;;;;;;3.88;2.90;;;6.90;99.90;;;;;;4999703;28;90273;-74
2021/12/31 05:31:54;;;;;;;4.78;2.92;;;6.90;99.90;;;;;;4999497;28;90145;-73
2021/12/31 05:34:19;;;;;;;3.72;2.88;;;6.90;99.90;;;;;;4981332;28;91672;-74
2021/12/31 05:36:45;;;;;;;4.57;3.10;;;6.80;99.90;;;;;;4999708;28;89664;-74
2021/12/31 05:39:13;;;;;;;7.75;3.20;;;6.80;99.90;;;;;;4981501;28;92691;-73
2021/12/31 05:41:39;;;;;;;5.30;2.92;;;6.80;99.90;;;;;;4999651;28;89256;-73
2021/12/31 05:44:06;;;;;;;3.75;2.50;;;6.80;99.90;;;;;;4999034;28;89913;-73
2021/12/31 05:46:32;;;;;;;4.22;2.70;;;6.70;99.90;;;;;;4999278;28;89353;-73
2021/12/31 05:48:57;;;;;;;5.20;3.20;;;6.60;99.90;;;;;;4999811;28;90097;-73
2021/12/31 05:51:26;;;;;;;3.72;2.50;;;6.60;99.90;;;;;;4999432;28;89293;-73
2021/12/31 05:53:52;;;;;;;4.60;2.80;;;6.80;99.90;;;;;;4999035;28;89284;-73
2021/12/31 05:56:17;;;;;;;6.80;2.92;;;6.80;99.90;;;;;;4980635;28;92429;-73
2021/12/31 05:58:43;;;;;;;8.70;3.60;;;6.90;99.90;;;;;;4999161;28;91005;-75
2021/12/31 06:01:08;;;;;;;6.53;3.15;;;6.90;99.90;;;;;;4999422;28;89369;-74
2021/12/31 06:03:34;;;;;;;4.00;2.95;;;7.00;99.90;;;;;;4998792;28;89280;-74
2021/12/31 06:06:00;;;;;;;6.35;3.00;;;7.10;99.90;;;;;;4998668;28;89283;-74
2021/12/31 06:08:25;;;;;;;4.90;3.25;;;7.30;99.90;;;;;;4980876;28;91666;-75
2021/12/31 06:10:51;;;;;;;4.78;2.97;;;7.40;99.90;;;;;;4981051;28;89417;-74
2021/12/31 06:13:16;;;;;;;5.40;3.03;;;7.40;99.90;;;;;;4981017;28;92683;-74
2021/12/31 06:15:42;;;;;;;7.20;3.20;;;7.40;99.90;;;;;;4980798;28;91169;-74
2021/12/31 06:18:09;;;;;;;6.20;3.55;;;7.40;99.90;;;;;;4999205;28;89550;-74
2021/12/31 06:20:36;;;;;;;5.68;3.47;;;7.20;99.90;;;;;;4980642;28;90431;-74
2021/12/31 06:23:01;;;;;;;6.03;3.22;;;7.00;99.90;;;;;;4980679;28;92884;-74
2021/12/31 06:25:27;;;;;;;9.50;5.00;;;6.90;99.90;;;;;;4980687;28;91910;-74
2021/12/31 06:27:53;;;;;;;7.68;3.85;;;6.70;99.90;;;;;;4998677;28;89719;-75
2021/12/31 06:30:19;;;;;;;6.25;3.90;;;6.60;99.90;;;;;;4998894;28;89239;-74
2021/12/31 06:32:45;;;;;;;5.13;4.05;;;6.50;99.90;;;;;;4998793;28;89963;-75
2021/12/31 06:35:10;;;;;;;5.80;3.55;;;6.40;99.90;;;;;;4980570;28;91283;-74
2021/12/31 06:37:37;;;;;;;5.13;3.60;;;6.30;99.90;;;;;;4999134;28;89090;-74
2021/12/31 06:40:05;;;;;;;7.10;3.97;;;6.20;99.90;;;;;;4999222;28;89282;-75
2021/12/31 06:42:31;;;;;;;4.68;3.40;;;6.10;99.90;;;;;;4998248;28;89226;-74
2021/12/31 06:44:57;;;;;;;8.07;3.97;;;6.00;99.90;;;;;;4979776;28;93595;-74
2021/12/31 06:47:22;;;;;;;6.55;3.90;;;5.90;99.90;;;;;;4997875;28;90565;-74
2021/12/31 06:49:48;;;;;;;6.72;4.07;;;5.90;99.90;;;;;;4998714;28;89305;-75
2021/12/31 06:52:13;;;;;;;6.45;3.90;;;5.90;99.90;;;;;;4998236;28;89286;-74
2021/12/31 06:54:39;;;;;;;7.15;4.05;;;5.90;99.90;;;;;;4998419;28;90820;-74
2021/12/31 06:57:05;;;;;;;6.45;4.15;;;5.90;99.90;;;;;;4980155;28;91605;-74
2021/12/31 06:59:30;;;;;;;7.13;4.20;;;5.90;99.90;;;;;;4998607;28;89210;-73
2021/12/31 07:01:57;;;;;;;7.20;4.40;;;5.80;99.90;;;;;;4994236;28;89876;-74
2021/12/31 07:04:23;;;;;;;8.15;4.47;;;5.80;99.90;;;;;;4984151;28;89733;-73
2021/12/31 07:06:49;;;;;;;8.73;5.05;;;5.70;99.90;;;;;;4988176;28;89983;-73
2021/12/31 07:09:14;;;;;;;6.32;4.15;;;5.80;99.90;;;;;;4969258;28;90423;-73
2021/12/31 07:11:40;;;;;;;7.50;4.57;;;5.70;99.90;;;;;;4991707;28;89159;-73
2021/12/31 07:14:06;;;;;;;6.63;4.20;;;5.70;99.90;;;;;;4997322;28;89731;-73
2021/12/31 07:16:31;;;;;;;6.35;3.97;;;5.60;99.90;;;;;;4997784;28;90115;-73
2021/12/31 07:18:57;;;;;;;8.85;4.95;;;5.60;99.90;;;;;;4998105;28;89516;-74
2021/12/31 07:21:22;;;;;;;10.23;4.95;;;5.60;99.90;;;;;;4997186;28;89801;-74
2021/12/31 07:23:48;;;;;;;9.27;5.10;;;5.50;99.90;;;;;;4997304;28;89255;-73
2021/12/31 07:26:13;;;;;;;11.43;6.15;;;5.50;99.90;;;;;;4997562;28;89376;-73
2021/12/31 07:28:39;;;;;;;10.25;5.88;;;5.50;99.90;;;;;;4992835;28;89343;-74
2021/12/31 07:31:06;;;;;;;7.05;4.80;;;5.60;99.90;;;;;;4989431;28;89652;-77
2021/12/31 07:33:32;;;;;;;11.20;5.30;;;5.50;99.90;;;;;;4985388;28;90325;-78
2021/12/31 07:36:00;;;;;;;12.07;5.55;;;5.60;99.90;;;;;;4970361;28;93156;-77
2021/12/31 07:38:35;;;;;;;11.02;7.10;;;5.70;99.90;;;;;;4973324;28;89281;-77
2021/12/31 07:41:01;;;;;;;16.15;8.75;;;5.80;99.90;;;;;;4991007;28;89543;-77
2021/12/31 07:43:27;;;;;;;14.68;7.38;;;5.80;99.90;;;;;;4992245;28;89521;-78
2021/12/31 07:45:53;;;;;;;11.23;6.20;;;6.00;99.90;;;;;;4989873;28;89175;-78
2021/12/31 07:48:20;;;;;;;11.25;6.32;;;6.00;99.90;;;;;;4970880;28;89418;-77
2021/12/31 07:50:46;;;;;;;11.35;6.68;;;6.10;99.90;;;;;;4991264;28;89315;-77
2021/12/31 07:53:12;;;;;;;11.00;6.72;;;6.20;99.90;;;;;;4986409;28;90520;-78
2021/12/31 07:55:37;;;;;;;10.80;7.07;;;6.30;99.90;;;;;;4971387;28;91432;-81
2021/12/31 07:58:05;;;;;;;12.45;7.00;;;6.30;99.90;;;;;;4972506;28;90237;-78
2021/12/31 08:00:36;;;;;;;12.88;6.70;;;6.20;99.90;;;;;;4992166;28;89391;-80
2021/12/31 08:03:03;;;;;;;11.05;6.50;;;6.10;99.90;;;;;;4974141;28;93046;-78
2021/12/31 08:05:30;;;;;;;10.38;6.03;;;6.20;99.90;;;;;;4970062;28;91866;-77
2021/12/31 08:07:56;;;;;;;10.40;6.10;;;6.10;99.90;;;;;;4985744;28;89172;-77
2021/12/31 08:10:22;;;;;;;12.40;5.82;;;6.10;99.90;;;;;;4971442;28;91766;-75
2021/12/31 08:12:48;;;;;;;8.25;5.55;;;6.10;99.90;;;;;;4986981;28;89859;-80
2021/12/31 08:15:14;;;;;;;9.25;5.53;;;6.10;99.90;;;;;;4987408;28;89943;-76
2021/12/31 08:17:40;;;;;;;10.82;6.35;;;6.10;99.90;;;;;;4984824;28;89121;-80
2021/12/31 08:20:06;;;;;;;11.63;6.32;;;6.20;99.90;;;;;;4986314;28;89764;-79
2021/12/31 08:22:33;;;;;;;9.85;6.25;;;6.20;99.90;;;;;;4984696;28;92053;-76
2021/12/31 08:24:59;;;;;;;10.48;6.38;;;6.20;99.90;;;;;;4986382;28;90744;-77
2021/12/31 08:27:25;;;;;;;9.98;6.65;;;6.20;99.90;;;;;;4970003;28;89279;-77
2021/12/31 08:29:51;;;;;;;13.23;7.47;;;6.30;99.90;;;;;;4971400;28;92908;-77
2021/12/31 08:32:16;;;;;;;9.55;7.18;;;6.30;99.90;;;;;;4988980;28;89896;-75
2021/12/31 08:34:42;;;;;;;12.98;8.00;;;6.40;99.90;;;;;;4996000;28;89675;-76
2021/12/31 08:37:07;;;;;;;15.40;8.50;;;6.40;99.90;;;;;;5009209;28;89222;-75
2021/12/31 08:39:33;;;;;;;14.63;7.70;;;6.60;99.90;;;;;;4998132;28;89050;-76
2021/12/31 08:42:00;;;;;;;15.70;8.85;;;6.60;99.90;;;;;;4979335;28;90085;-76
2021/12/31 08:44:26;;;;;;;15.20;8.30;;;6.70;99.90;;;;;;4959620;28;92077;-76
2021/12/31 08:46:51;;;;;;;18.88;9.60;;;6.70;99.90;;;;;;4977198;28;90134;-76
2021/12/31 08:49:17;;;;;;;16.27;9.40;;;6.80;99.90;;;;;;4977461;28;90246;-77
2021/12/31 08:51:43;;;;;;;14.50;9.05;;;6.90;99.90;;;;;;4976616;28;89779;-77
2021/12/31 08:54:08;;;;;;;12.27;5.93;;;7.00;99.90;;;;;;4984730;28;90209;-77
2021/12/31 08:56:34;;;;;;;11.32;5.80;;;7.30;99.90;;;;;;4994550;28;89146;-77
2021/12/31 08:59:00;;;;;;;8.95;5.20;;;7.40;99.90;;;;;;4984314;28;90324;-79
2021/12/31 09:01:25;;;;;;;8.20;4.85;;;7.50;99.90;;;;;;4960923;28;93258;-77
2021/12/31 09:03:51;;;;;;;11.52;5.57;;;7.70;99.90;;;;;;4960199;28;91763;-77
2021/12/31 09:06:18;;;;;;;9.07;4.70;;;7.90;99.90;;;;;;4977966;28;89198;-76
2021/12/31 09:08:44;;;;;;;10.15;4.97;;;8.10;99.90;;;;;;4977723;28;89682;-75
2021/12/31 09:11:09;;;;;;;8.88;4.65;;;8.30;99.90;;;;;;4980047;28;91280;-76
2021/12/31 09:13:35;;;;;;;9.90;4.32;;;8.40;99.90;;;;;;4963181;28;95283;-75
2021/12/31 09:16:01;;;;;;;8.10;4.47;;;8.50;99.90;;;;;;4963518;28;89337;-76
2021/12/31 09:18:27;;;;;;;8.55;4.68;;;8.50;99.90;;;;;;4979809;28;90156;-77
2021/12/31 09:20:53;;;;;;;8.15;4.78;;;8.60;99.90;;;;;;4981382;28;89998;-78
2021/12/31 09:23:19;;;;;;;9.23;3.90;;;8.70;99.90;;;;;;4962940;28;92372;-77
2021/12/31 09:25:44;;;;;;;7.78;4.68;;;8.70;99.90;;;;;;4988345;28;89140;-77
2021/12/31 09:28:10;;;;;;;8.68;4.70;;;8.90;99.90;;;;;;4993293;28;89947;-78
2021/12/31 09:30:36;;;;;;;7.38;4.30;;;9.00;99.90;;;;;;4994038;28;89292;-85
2021/12/31 09:33:02;;;;;;;8.00;4.90;;;9.10;99.90;;;;;;5004803;28;89798;-81
2021/12/31 09:35:27;;;;;;;7.70;4.60;;;9.10;99.90;;;;;;4989998;28;90333;-76
2021/12/31 09:37:53;;;;;;;8.63;4.40;;;9.20;99.90;;;;;;5026299;28;89314;-79
2021/12/31 09:40:19;;;;;;;8.80;4.45;;;9.20;99.90;;;;;;5007143;28;90223;-82
2021/12/31 09:43:09;;;;;;;7.20;4.60;;;9.30;99.90;;;;;;5022489;28;90138;-78
2021/12/31 09:45:36;;;;;;;8.63;4.65;;;9.30;99.90;;;;;;5005339;28;89267;-78
2021/12/31 09:48:10;;;;;;;8.27;4.90;;;9.30;99.90;;;;;;5015376;28;89283;-77
2021/12/31 09:50:48;;;;;;;8.48;5.00;;;9.40;99.90;;;;;;4999817;28;90441;-77
2021/12/31 09:53:15;;;;;;;7.82;4.95;;;9.40;99.90;;;;;;4981875;28;91645;-77
2021/12/31 09:55:45;;;;;;;11.43;5.82;;;9.60;99.90;;;;;;5001959;28;89365;-77
2021/12/31 09:58:13;;;;;;;9.90;5.57;;;9.60;99.90;;;;;;5011737;28;89754;-78
2021/12/31 10:00:42;;;;;;;5.97;4.53;;;9.70;99.90;;;;;;4984053;28;93273;-80
2021/12/31 10:03:17;;;;;;;7.72;4.65;;;9.60;99.90;;;;;;5001241;28;90904;-75
2021/12/31 10:05:45;;;;;;;10.07;5.00;;;9.70;99.90;;;;;;4999557;28;89263;-76
2021/12/31 10:08:21;;;;;;;8.82;4.82;;;9.70;99.90;;;;;;4981206;28;89969;-76
2021/12/31 10:11:02;;;;;;;8.10;4.80;;;9.80;99.90;;;;;;4999333;28;90484;-76
2021/12/31 10:13:29;;;;;;;6.93;4.35;;;9.80;99.90;;;;;;4997622;28;91361;-77
2021/12/31 10:15:56;;;;;;;9.20;4.80;;;9.90;99.90;;;;;;5001220;28;89379;-75
2021/12/31 10:18:29;;;;;;;7.60;3.90;;;10.00;99.90;;;;;;5017456;28;89710;-76
2021/12/31 10:20:54;;;;;;;9.90;4.47;;;9.90;99.90;;;;;;4996028;28;90555;-76
2021/12/31 10:23:20;;;;;;;6.05;4.13;;;9.90;99.90;;;;;;4997999;28;92778;-75
2021/12/31 10:25:47;;;;;;;7.60;4.75;;;10.00;99.90;;;;;;5000072;28;90362;-76
2021/12/31 10:28:15;;;;;;;5.32;3.50;;;10.00;99.90;;;;;;5011682;28;90005;-75
2021/12/31 10:30:42;;;;;;;18.92;7.28;;;10.00;99.90;;;;;;5008659;28;90539;-75
2021/12/31 10:33:08;;;;;;;6.57;4.10;;;10.00;99.90;;;;;;5014691;28;90025;-76
2021/12/31 10:35:43;;;;;;;6.55;3.67;;;10.00;99.90;;;;;;4995044;28;89455;-76
2021/12/31 10:38:11;;;;;;;6.45;3.53;;;10.00;99.90;;;;;;4993681;28;89348;-76
2021/12/31 10:40:40;;;;;;;4.45;3.20;;;10.10;99.90;;;;;;4990539;28;90499;-76
2021/12/31 10:43:12;;;;;;;5.53;3.53;;;10.20;99.90;;;;;;4996748;28;89943;-76
2021/12/31 10:46:07;;;;;;;5.90;3.72;;;10.10;99.90;;;;;;5005768;28;89464;-76
2021/12/31 10:48:41;;;;;;;5.85;3.92;;;10.10;99.90;;;;;;5014478;28;89908;-76
2021/12/31 10:51:09;;;;;;;5.65;3.72;;;10.20;99.90;;;;;;4973961;28;93155;-75
2021/12/31 10:53:35;;;;;;;4.55;3.63;;;10.20;99.90;;;;;;4993304;28;89744;-76
2021/12/31 10:56:12;;;;;;;4.85;3.78;;;10.30;99.90;;;;;;4992470;28;89297;-75
2021/12/31 10:58:43;;;;;;;6.25;3.97;;;10.40;99.90;;;;;;4990767;28;89347;-76
2021/12/31 11:01:12;;;;;;;5.03;3.40;;;10.40;99.90;;;;;;4989483;28;89508;-75
2021/12/31 11:03:39;;;;;;;5.05;3.30;;;10.40;99.90;;;;;;4978055;28;91237;-76
2021/12/31 11:06:07;;;;;;;5.97;3.42;;;10.40;99.90;;;;;;4978751;28;89389;-75
2021/12/31 11:08:33;;;;;;;4.30;3.38;;;10.50;99.90;;;;;;4980375;28;92449;-76
2021/12/31 11:11:01;;;;;;;4.93;3.80;;;10.60;99.90;;;;;;4996984;28;89305;-76
2021/12/31 11:13:28;;;;;;;6.88;3.45;;;10.60;99.90;;;;;;4997981;28;90632;-75
2021/12/31 11:15:55;;;;;;;7.00;3.60;;;10.80;99.90;;;;;;4998474;28;90191;-75
2021/12/31 11:18:24;;;;;;;5.65;3.67;;;10.90;99.90;;;;;;4979670;28;91793;-76
2021/12/31 11:20:52;;;;;;;4.38;3.08;;;10.90;99.90;;;;;;4997951;28;90409;-76
2021/12/31 11:23:27;;;;;;;6.82;3.92;;;11.00;99.90;;;;;;4997913;28;89293;-76
2021/12/31 11:26:00;;;;;;;5.50;3.78;;;11.10;99.90;;;;;;4998306;28;89890;-75
2021/12/31 11:28:32;;;;;;;4.72;3.50;;;11.20;99.90;;;;;;4997814;28;90090;-75
2021/12/31 11:31:17;;;;;;;7.18;3.97;;;11.30;99.90;;;;;;4998013;28;90247;-76
2021/12/31 11:33:56;;;;;;;4.70;3.17;;;11.40;99.90;;;;;;4997798;28;89563;-76
2021/12/31 11:36:43;;;;;;;5.25;3.55;;;11.50;99.90;;;;;;4979927;28;89269;-76
2021/12/31 11:39:16;;;;;;;4.25;3.20;;;11.60;99.90;;;;;;4998613;28;90171;-76
2021/12/31 11:41:43;;;;;;;3.53;3.00;;;11.80;99.90;;;;;;5011120;28;91030;-75
2021/12/31 11:44:13;;;;;;;4.30;3.05;;;11.90;99.90;;;;;;5019244;28;89477;-76
2021/12/31 11:46:43;;;;;;;5.82;3.53;;;12.10;99.90;;;;;;4983552;28;89425;-75
2021/12/31 11:49:20;;;;;;;5.90;3.08;;;12.40;99.90;;;;;;4998043;28;89910;-75
2021/12/31 11:52:08;;;;;;;4.38;2.90;;;12.70;99.90;;;;;;4997633;28;89787;-77
2021/12/31 11:54:39;;;;;;;3.88;2.88;;;12.90;99.90;;;;;;4979294;28;92839;-77
2021/12/31 11:57:28;;;;;;;4.18;2.92;;;13.10;99.90;;;;;;4998115;28;89363;-77
2021/12/31 11:59:54;;;;;;;3.40;2.72;;;13.30;99.90;;;;;;4991955;28;88931;-77
2021/12/31 12:02:31;;;;;;;2.95;2.17;;;13.40;99.90;;;;;;4988350;28;90874;-77
2021/12/31 12:05:02;;;;;;;4.47;3.17;;;13.50;99.90;;;;;;4988737;28;89355;-77
2021/12/31 12:07:37;;;;;;;3.83;2.60;;;13.50;99.90;;;;;;4985303;28;90512;-77
2021/12/31 12:10:03;;;;;;;4.63;3.03;;;13.50;99.90;;;;;;4970662;28;93123;-78
2021/12/31 12:12:36;;;;;;;3.58;2.70;;;13.60;99.90;;;;;;4986145;28;89974;-76
2021/12/31 12:15:27;;;;;;;4.43;3.08;;;13.70;99.90;;;;;;4987008;28;90221;-76
2021/12/31 12:17:53;;;;;;;4.07;3.60;;;13.90;99.90;;;;;;4971478;28;89303;-76
2021/12/31 12:20:19;;;;;;;5.85;3.13;;;14.00;99.90;;;;;;4970320;28;92730;-77
2021/12/31 12:22:50;;;;;;;5.38;3.20;;;14.00;99.90;;;;;;4989422;28;89943;-78
2021/12/31 12:25:31;;;;;;;4.28;3.33;;;14.10;99.90;;;;;;4978857;28;89006;-78
2021/12/31 12:28:04;;;;;;;5.10;3.20;;;14.10;99.90;;;;;;4979072;28;89191;-78
2021/12/31 12:30:30;;;;;;;5.93;3.55;;;14.10;99.90;;;;;;4979454;28;89213;-78
2021/12/31 12:33:15;;;;;;;4.68;3.63;;;14.10;99.90;;;;;;4977815;28;91072;-77
2021/12/31 12:35:46;;;;;;;5.18;3.40;;;14.10;99.90;;;;;;4978396;28;89976;-77
2021/12/31 12:38:18;;;;;;;5.50;4.25;;;14.30;99.90;;;;;;4960735;28;89374;-77
2021/12/31 12:40:48;;;;;;;5.47;3.60;;;14.30;99.90;;;;;;4961904;28;91947;-79
2021/12/31 12:43:13;;;;;;;4.63;3.97;;;14.40;99.90;;;;;;4977655;28;89187;-76
2021/12/31 12:45:41;;;;;;;4.95;3.50;;;14.40;99.90;;;;;;4979786;28;89254;-76
2021/12/31 12:48:08;;;;;;;4.57;3.38;;;14.40;99.90;;;;;;4980696;28;89470;-76
2021/12/31 12:50:34;;;;;;;5.32;3.92;;;14.50;99.90;;;;;;4981479;28;90296;-77
2021/12/31 12:53:00;;;;;;;5.35;3.28;;;14.50;99.90;;;;;;4981243;28;90395;-78
2021/12/31 12:55:27;;;;;;;4.68;2.95;;;14.50;99.90;;;;;;4984730;28;89693;-78
2021/12/31 12:57:54;;;;;;;4.05;2.70;;;14.50;99.90;;;;;;4969957;28;90366;-79
2021/12/31 13:00:35;;;;;;;4.35;2.90;;;14.50;99.90;;;;;;4984407;28;91152;-79
2021/12/31 13:03:09;;;;;;;3.40;2.63;;;14.50;99.90;;;;;;4981749;28;89886;-78
2021/12/31 13:05:36;;;;;;;2.83;2.35;;;14.50;99.90;;;;;;4980971;28;89738;-76
2021/12/31 13:08:02;;;;;;;3.47;2.20;;;14.60;99.90;;;;;;4980954;28;89330;-75
2021/12/31 13:10:29;;;;;;;4.47;2.40;;;14.60;99.90;;;;;;4980984;28;89341;-76
2021/12/31 13:12:56;;;;;;;3.00;2.20;;;14.60;99.90;;;;;;4980663;28;90016;-76
2021/12/31 13:15:23;;;;;;;4.18;2.25;;;14.60;99.90;;;;;;4980917;28;90088;-76
2021/12/31 13:18:05;;;;;;;5.15;2.47;;;14.60;99.90;;;;;;4980591;28;89221;-76
2021/12/31 13:20:35;;;;;;;3.63;2.42;;;14.70;99.90;;;;;;4980855;28;89447;-77
2021/12/31 13:23:07;;;;;;;3.30;2.40;;;14.70;99.90;;;;;;4980459;28;90235;-77
2021/12/31 13:25:38;;;;;;;3.13;2.40;;;14.70;99.90;;;;;;4980706;28;89378;-77
2021/12/31 13:28:17;;;;;;;2.80;2.00;;;14.80;99.90;;;;;;4980729;28;89227;-79
2021/12/31 13:31:09;;;;;;;4.65;2.40;;;14.80;99.90;;;;;;4980726;28;89772;-76
2021/12/31 13:33:42;;;;;;;3.33;2.60;;;14.80;99.90;;;;;;4980819;28;89223;-77
2021/12/31 13:36:39;;;;;;;4.57;2.90;;;14.90;99.90;;;;;;5015161;28;92111;-76
2021/12/31 13:39:15;;;;;;;2.72;2.30;;;14.70;99.90;;;;;;4944853;28;89360;-75
2021/12/31 13:41:56;;;;;;;5.68;4.18;;;14.60;99.90;;;;;;4981841;28;90379;-76
2021/12/31 13:44:26;;;;;;;115.65;103.30;;;14.50;99.90;;;;;;4999489;28;90256;-76
2021/12/31 13:47:21;;;;;;;23.05;20.55;;;14.40;99.90;;;;;;4998173;28;89731;-76
2021/12/31 13:49:50;;;;;;;28.95;23.77;;;14.30;99.90;;;;;;4984784;28;90613;-77
2021/12/31 13:52:16;;;;;;;25.40;17.45;;;14.30;99.90;;;;;;4998006;28;89753;-76
2021/12/31 13:54:44;;;;;;;10.50;8.02;;;14.20;99.90;;;;;;4998442;28;90022;-76
2021/12/31 13:57:36;;;;;;;17.33;13.20;;;14.20;99.90;;;;;;4979619;28;92296;-76
2021/12/31 14:00:04;;;;;;;13.90;11.38;;;14.10;99.90;;;;;;4995065;28;89609;-77
2021/12/31 14:02:30;;;;;;;7.65;6.13;;;14.00;99.90;;;;;;4997736;28;89356;-76
2021/12/31 14:04:59;;;;;;;12.50;8.32;;;14.00;99.90;;;;;;4999327;28;90186;-77
2021/12/31 14:07:57;;;;;;;6.95;5.00;;;14.00;99.90;;;;;;4999740;28;88868;-76
2021/12/31 14:10:24;;;;;;;9.95;6.38;;;14.00;99.90;;;;;;4999563;28;89413;-76
2021/12/31 14:12:51;;;;;;;4.93;4.03;;;14.00;99.90;;;;;;4998898;28;90299;-76
2021/12/31 14:15:18;;;;;;;8.60;7.05;;;13.90;99.90;;;;;;4999117;28;91254;-76
2021/12/31 14:17:46;;;;;;;13.60;9.73;;;13.80;99.90;;;;;;4999153;28;89761;-76
2021/12/31 14:20:12;;;;;;;20.70;15.73;;;13.70;99.90;;;;;;4981139;28;89344;-76
2021/12/31 14:22:38;;;;;;;11.68;8.48;;;13.70;99.90;;;;;;4998363;28;89957;-76
2021/12/31 14:25:05;;;;;;;11.30;7.50;;;13.80;99.90;;;;;;4980745;28;93179;-76
2021/12/31 14:27:32;;;;;;;31.75;21.65;;;13.80;99.90;;;;;;4999004;28;90695;-77
2021/12/31 14:29:58;;;;;;;67.32;48.30;;;13.80;99.90;;;;;;5000749;28;89276;-77
2021/12/31 14:32:23;;;;;;;51.40;40.22;;;13.70;99.90;;;;;;4998861;28;89962;-77
2021/12/31 14:34:49;;;;;;;27.13;21.42;;;13.60;99.90;;;;;;4998218;28;89403;-76
2021/12/31 14:37:15;;;;;;;33.42;25.58;;;13.40;99.90;;;;;;4999783;28;89322;-77
2021/12/31 14:39:50;;;;;;;18.77;13.68;;;13.30;99.90;;;;;;4981252;28;90232;-76
2021/12/31 14:42:20;;;;;;;315.08;196.88;;;13.00;99.90;;;;;;4999711;28;89152;-76
2021/12/31 14:44:46;;;;;;;166.52;93.55;;;12.70;99.90;;;;;;5028371;28;92640;-76
2021/12/31 14:47:11;;;;;;;67.50;42.70;;;12.40;99.90;;;;;;4998093;28;92681;-76
2021/12/31 14:49:37;;;;;;;37.17;23.52;;;12.10;99.90;;;;;;5002222;28;89170;-76
2021/12/31 14:52:06;;;;;;;16.88;12.07;;;11.90;99.90;;;;;;4998435;28;89494;-77
2021/12/31 14:54:34;;;;;;;11.32;8.02;;;11.60;99.90;;;;;;4998317;28;90140;-76
2021/12/31 14:56:59;;;;;;;7.72;5.50;;;11.40;99.90;;;;;;4981001;28;91997;-76
2021/12/31 14:59:25;;;;;;;6.63;4.13;;;11.20;99.90;;;;;;4998468;28;89289;-77
2021/12/31 15:01:50;;;;;;;4.22;3.63;;;11.00;99.90;;;;;;4998015;28;91007;-76
2021/12/31 15:04:16;;;;;;;5.25;3.30;;;10.90;99.90;;;;;;4997704;28;90134;-76
2021/12/31 15:06:42;;;;;;;4.22;3.42;;;10.70;99.90;;;;;;4998351;28;90705;-76
2021/12/31 15:09:07;;;;;;;6.55;3.42;;;10.50;99.90;;;;;;4999304;28;89383;-76
2021/12/31 15:11:33;;;;;;;5.68;3.70;;;10.40;99.90;;;;;;5016208;28;91529;-76
2021/12/31 15:13:59;;;;;;;6.88;4.28;;;10.20;99.90;;;;;;5003606;28;89279;-76
2021/12/31 15:16:24;;;;;;;5.88;4.45;;;10.10;99.90;;;;;;5004025;28;89992;-76
2021/12/31 15:18:51;;;;;;;7.22;5.38;;;10.10;99.90;;;;;;5004869;28;89181;-76
2021/12/31 15:21:22;;;;;;;8.45;5.53;;;10.00;99.90;;;;;;5002063;28;89067;-76
2021/12/31 15:23:49;;;;;;;9.27;5.32;;;9.80;99.90;;;;;;5017002;28;92917;-76
2021/12/31 15:26:16;;;;;;;8.43;5.28;;;9.70;99.90;;;;;;5017338;28;92339;-76
2021/12/31 15:28:42;;;;;;;6.75;4.38;;;9.50;99.90;;;;;;5002006;28;90208;-76
2021/12/31 15:31:08;;;;;;;6.22;4.10;;;9.40;99.90;;;;;;5001128;28;89066;-76
2021/12/31 15:33:33;;;;;;;8.23;4.72;;;9.30;99.90;;;;;;5001166;28;90423;-76
2021/12/31 15:35:59;;;;;;;6.90;4.65;;;9.20;99.90;;;;;;5001550;28;89198;-76
2021/12/31 15:38:26;;;;;;;7.53;4.60;;;9.10;99.90;;;;;;4983788;28;89264;-76
2021/12/31 15:40:51;;;;;;;7.45;4.90;;;9.10;99.90;;;;;;5000036;28;89382;-76
2021/12/31 15:43:18;;;;;;;8.68;5.70;;;9.20;99.90;;;;;;4999728;28;90195;-76
2021/12/31 15:45:44;;;;;;;8.38;5.80;;;9.10;99.90;;;;;;5000530;28;89539;-76
2021/12/31 15:48:11;;;;;;;8.43;6.28;;;8.90;99.90;;;;;;5000831;28;89322;-76
2021/12/31 15:50:38;;;;;;;7.53;6.05;;;8.90;99.90;;;;;;5015522;28;91319;-76
2021/12/31 15:53:08;;;;;;;7.25;6.00;;;8.80;99.90;;;;;;4998015;28;90159;-76
2021/12/31 15:55:34;;;;;;;8.63;6.80;;;8.70;99.90;;;;;;5000168;28;89675;-76
2021/12/31 15:58:00;;;;;;;10.60;6.88;;;8.70;99.90;;;;;;5001473;28;89437;-76
2021/12/31 16:00:27;;;;;;;14.32;9.65;;;8.60;99.90;;;;;;5000480;28;89964;-76
2021/12/31 16:02:54;;;;;;;16.40;11.95;;;8.60;99.90;;;;;;5016169;28;89941;-76
2021/12/31 16:05:20;;;;;;;15.18;10.43;;;8.80;99.90;;;;;;4999442;28;89690;-76
2021/12/31 16:07:46;;;;;;;20.88;15.43;;;8.80;99.90;;;;;;5000679;28;89165;-76
2021/12/31 16:10:16;;;;;;;26.73;20.90;;;8.80;99.90;;;;;;5000841;28;88939;-77
2021/12/31 16:12:42;;;;;;;25.40;20.00;;;8.80;99.90;;;;;;4999943;28;89915;-76
2021/12/31 16:15:11;;;;;;;19.95;16.15;;;8.70;99.90;;;;;;5000244;28;89222;-76
2021/12/31 16:17:37;;;;;;;14.63;12.93;;;8.50;99.90;;;;;;4999738;28;90090;-76
2021/12/31 16:20:03;;;;;;;13.52;11.05;;;8.40;99.90;;;;;;5001950;28;90930;-76
2021/12/31 16:22:29;;;;;;;11.18;8.27;;;8.30;99.90;;;;;;5003371;28;89364;-76
2021/12/31 16:24:54;;;;;;;10.77;8.75;;;8.40;99.90;;;;;;5004654;28;89897;-76
2021/12/31 16:27:20;;;;;;;11.00;8.25;;;8.50;99.90;;;;;;5004505;28;89220;-76
2021/12/31 16:29:51;;;;;;;10.13;7.80;;;8.70;99.90;;;;;;5004317;28;89219;-76
2021/12/31 16:32:17;;;;;;;11.52;9.15;;;8.90;99.90;;;;;;5000283;28;90087;-76
2021/12/31 16:34:43;;;;;;;13.27;9.68;;;9.10;99.90;;;;;;5001252;28;90178;-76
2021/12/31 16:37:10;;;;;;;13.60;10.02;;;9.20;99.90;;;;;;5001035;28;89288;-76
2021/12/31 16:39:42;;;;;;;12.55;8.50;;;9.40;99.90;;;;;;5000249;28;89261;-76
2021/12/31 16:42:10;;;;;;;11.00;8.32;;;9.40;99.90;;;;;;4999869;28;90901;-76
2021/12/31 16:44:36;;;;;;;12.90;9.65;;;9.40;99.90;;;;;;5000367;28;89944;-76
2021/12/31 16:47:01;;;;;;;14.48;10.48;;;9.40;99.90;;;;;;4982400;28;89655;-76
2021/12/31 16:49:27;;;;;;;12.57;9.98;;;9.50;99.90;;;;;;4999829;28;89340;-76
2021/12/31 16:51:52;;;;;;;14.32;11.10;;;9.40;99.90;;;;;;4999938;28;90567;-76
2021/12/31 16:54:18;;;;;;;14.27;11.38;;;9.30;99.90;;;;;;4999632;28;89334;-76
2021/12/31 16:56:43;;;;;;;15.27;11.50;;;9.30;99.90;;;;;;5002791;28;89303;-76
2021/12/31 16:59:09;;;;;;;13.95;10.50;;;9.30;99.90;;;;;;4985459;28;91565;-76
2021/12/31 17:01:34;;;;;;;12.63;9.18;;;9.30;99.90;;;;;;5000370;28;90816;-76
2021/12/31 17:04:00;;;;;;;12.27;8.70;;;9.40;99.90;;;;;;4985265;28;91366;-76
2021/12/31 17:06:26;;;;;;;11.13;8.85;;;9.50;99.90;;;;;;5003462;28;90132;-76
2021/12/31 17:08:51;;;;;;;11.18;8.40;;;9.60;99.90;;;;;;5003474;28;89759;-76
2021/12/31 17:11:17;;;;;;;10.93;7.63;;;9.70;99.90;;;;;;5003524;28;89342;-76
2021/12/31 17:13:42;;;;;;;11.02;7.47;;;9.90;99.90;;;;;;5003496;28;89209;-76
2021/12/31 17:16:08;;;;;;;11.13;7.13;;;10.10;99.90;;;;;;5056198;22;89360;-74
2021/12/31 17:18:35;;;;;;;9.95;7.20;;;10.10;99.90;;;;;;5040388;28;89571;-73
2021/12/31 17:21:01;;;;;;;10.80;6.95;;;10.20;99.90;;;;;;5021817;28;91666;-73
2021/12/31 17:23:27;;;;;;;9.55;7.03;;;10.20;99.90;;;;;;5040105;28;89700;-73
2021/12/31 17:25:53;;;;;;;8.25;6.43;;;10.30;99.90;;;;;;5024860;28;89245;-73
2021/12/31 17:28:18;;;;;;;9.52;6.80;;;10.40;99.90;;;;;;5019947;28;89650;-73
2021/12/31 17:30:44;;;;;;;11.07;6.60;;;10.50;99.90;;;;;;5000695;28;92224;-73
2021/12/31 17:33:09;;;;;;;10.90;6.63;;;10.40;99.90;;;;;;5019365;28;89497;-73
2021/12/31 17:35:35;;;;;;;8.43;6.85;;;10.20;99.90;;;;;;5019596;28;89347;-73
2021/12/31 17:38:00;;;;;;;10.20;7.50;;;10.10;99.90;;;;;;5019787;28;90259;-73
2021/12/31 17:40:26;;;;;;;9.13;6.63;;;10.10;99.90;;;;;;5019805;28;89881;-73
2021/12/31 17:42:52;;;;;;;10.55;7.60;;;10.00;99.90;;;;;;5019583;28;90059;-74
2021/12/31 17:45:18;;;;;;;9.82;7.03;;;9.90;99.90;;;;;;5001655;28;89430;-74
2021/12/31 17:47:43;;;;;;;9.38;6.88;;;9.90;99.90;;;;;;5020054;28;89617;-74
2021/12/31 17:50:09;;;;;;;11.68;8.00;;;9.80;99.90;;;;;;5001920;28;93014;-74
2021/12/31 17:52:35;;;;;;;10.35;7.32;;;9.70;99.90;;;;;;5019843;28;89940;-74